createdAt,value
2017-08-08T00:01:05.294Z,0
2017-08-08T00:02:14.822Z,0
2017-08-08T00:03:23.706Z,0
2017-08-08T00:04:33.246Z,0
2017-08-08T00:05:42.457Z,0
2017-08-08T00:06:52.309Z,0
2017-08-08T00:08:01.838Z,0
2017-08-08T00:09:11.378Z,0
2017-08-08T00:10:20.586Z,0
2017-08-08T00:11:30.116Z,0
2017-08-08T00:12:39.969Z,0
2017-08-08T00:13:49.549Z,0
2017-08-08T00:14:58.757Z,0
2017-08-08T00:16:07.963Z,0
2017-08-08T00:17:17.491Z,0
2017-08-08T00:18:27.024Z,0
2017-08-08T00:19:36.982Z,0
2017-08-08T00:20:45.863Z,0
2017-08-08T00:21:55.395Z,0
2017-08-08T00:23:04.928Z,0
2017-08-08T00:24:14.147Z,0
2017-08-08T00:25:23.827Z,0
2017-08-08T00:26:33.363Z,0
2017-08-08T00:27:42.570Z,0
2017-08-08T00:28:52.423Z,0
2017-08-08T00:30:01.951Z,0
2017-08-08T00:31:11.212Z,0
2017-08-08T00:32:20.740Z,0
2017-08-08T00:33:30.288Z,0
2017-08-08T00:34:39.508Z,0
2017-08-08T00:35:49.046Z,0
2017-08-08T00:36:58.675Z,0
2017-08-08T00:38:07.880Z,0
2017-08-08T00:39:17.732Z,0
2017-08-08T00:40:26.939Z,0
2017-08-08T00:41:36.796Z,0
2017-08-08T00:42:46.432Z,0
2017-08-08T00:43:55.966Z,0
2017-08-08T00:45:05.496Z,0
2017-08-08T00:46:14.701Z,0
2017-08-08T00:47:24.231Z,0
2017-08-08T00:48:33.493Z,0
2017-08-08T00:49:43.345Z,0
2017-08-08T00:50:52.878Z,0
2017-08-08T00:52:02.735Z,0
2017-08-08T00:53:12.280Z,0
2017-08-08T00:54:22.164Z,0
2017-08-08T00:55:31.051Z,0
2017-08-08T00:56:40.585Z,0
2017-08-08T00:57:50.124Z,0
2017-08-08T00:58:59.333Z,0
2017-08-08T01:00:09.671Z,0
2017-08-08T01:01:19.527Z,0
2017-08-08T01:02:29.056Z,0
2017-08-08T01:03:37.938Z,0
2017-08-08T01:04:47.146Z,0
2017-08-08T01:05:56.709Z,0
2017-08-08T01:07:06.244Z,0
2017-08-08T01:08:15.774Z,0
2017-08-08T01:09:24.998Z,0
2017-08-08T01:10:34.532Z,0
2017-08-08T01:11:43.842Z,0
2017-08-08T01:12:52.744Z,0
2017-08-08T01:14:02.280Z,0
2017-08-08T01:15:11.496Z,0
2017-08-08T01:16:21.021Z,0
2017-08-08T01:17:30.243Z,0
2017-08-08T01:18:39.132Z,0
2017-08-08T01:19:48.714Z,0
2017-08-08T01:20:57.919Z,0
2017-08-08T01:22:07.447Z,0
2017-08-08T01:23:16.842Z,0
2017-08-08T01:24:26.374Z,0
2017-08-08T01:25:35.582Z,0
2017-08-08T01:26:45.444Z,0
2017-08-08T01:27:54.655Z,0
2017-08-08T01:29:04.760Z,0
2017-08-08T01:30:14.613Z,0
2017-08-08T01:31:24.154Z,0
2017-08-08T01:32:34.010Z,0
2017-08-08T01:33:43.864Z,0
2017-08-08T01:34:52.902Z,0
2017-08-08T01:36:02.434Z,0
2017-08-08T01:37:11.319Z,0
2017-08-08T01:38:20.849Z,0
2017-08-08T01:39:30.702Z,0
2017-08-08T01:40:40.583Z,0
2017-08-08T01:41:50.120Z,0
2017-08-08T01:42:59.976Z,0
2017-08-08T01:44:09.829Z,0
2017-08-08T01:45:18.711Z,0
2017-08-08T01:46:28.340Z,0
2017-08-08T01:47:37.223Z,0
2017-08-08T01:48:46.751Z,0
2017-08-08T01:49:55.644Z,0
2017-08-08T01:51:04.851Z,0
2017-08-08T01:52:14.212Z,0
2017-08-08T01:53:23.416Z,0
2017-08-08T01:54:32.643Z,0
2017-08-08T01:55:42.190Z,0
2017-08-08T01:56:51.398Z,0
2017-08-08T01:58:00.752Z,0
2017-08-08T01:59:10.282Z,0
2017-08-08T02:00:19.814Z,0
2017-08-08T02:01:29.345Z,0
2017-08-08T02:02:38.553Z,0
2017-08-08T02:03:47.858Z,0
2017-08-08T02:04:57.392Z,0
2017-08-08T02:06:06.596Z,0
2017-08-08T02:07:16.451Z,0
2017-08-08T02:08:25.985Z,0
2017-08-08T02:09:35.345Z,0
2017-08-08T02:10:44.881Z,0
2017-08-08T02:11:53.780Z,0
2017-08-08T02:13:03.313Z,0
2017-08-08T02:14:12.840Z,0
2017-08-08T02:15:22.618Z,0
2017-08-08T02:16:31.500Z,0
2017-08-08T02:17:40.706Z,0
2017-08-08T02:18:49.910Z,0
2017-08-08T02:19:59.438Z,0
2017-08-08T02:21:09.671Z,0
2017-08-08T02:22:18.883Z,0
2017-08-08T02:23:28.087Z,0
2017-08-08T02:24:36.967Z,0
2017-08-08T02:25:46.167Z,0
2017-08-08T02:26:55.351Z,0
2017-08-08T02:28:05.204Z,0
2017-08-08T02:29:14.410Z,0
2017-08-08T02:30:23.939Z,0
2017-08-08T02:31:33.149Z,0
2017-08-08T02:32:42.417Z,0
2017-08-08T02:33:51.301Z,0
2017-08-08T02:35:00.512Z,0
2017-08-08T02:36:10.061Z,0
2017-08-08T02:37:19.913Z,0
2017-08-08T02:38:29.645Z,0
2017-08-08T02:39:38.856Z,0
2017-08-08T02:40:48.381Z,0
2017-08-08T02:41:57.910Z,0
2017-08-08T02:43:07.448Z,0
2017-08-08T02:44:16.807Z,0
2017-08-08T02:45:25.752Z,0
2017-08-08T02:46:35.625Z,0
2017-08-08T02:47:45.478Z,0
2017-08-08T02:48:55.666Z,0
2017-08-08T02:50:05.355Z,0
2017-08-08T02:51:14.888Z,0
2017-08-08T02:52:24.419Z,0
2017-08-08T02:53:33.305Z,0
2017-08-08T02:54:42.517Z,0
2017-08-08T02:55:52.030Z,0
2017-08-08T02:57:01.560Z,0
2017-08-08T02:58:11.417Z,0
2017-08-08T02:59:20.620Z,0
2017-08-08T03:00:29.828Z,0
2017-08-08T03:01:39.136Z,0
2017-08-08T03:02:48.665Z,0
2017-08-08T03:03:58.515Z,0
2017-08-08T03:05:08.368Z,0
2017-08-08T03:06:18.217Z,0
2017-08-08T03:07:27.845Z,0
2017-08-08T03:08:37.375Z,0
2017-08-08T03:09:46.577Z,0
2017-08-08T03:10:55.460Z,0
2017-08-08T03:12:04.671Z,0
2017-08-08T03:13:14.084Z,0
2017-08-08T03:14:23.612Z,0
2017-08-08T03:15:32.831Z,0
2017-08-08T03:16:42.358Z,0
2017-08-08T03:17:51.567Z,0
2017-08-08T03:19:01.248Z,0
2017-08-08T03:20:10.463Z,0
2017-08-08T03:21:19.668Z,0
2017-08-08T03:22:28.567Z,0
2017-08-08T03:23:38.122Z,0
2017-08-08T03:24:47.109Z,0
2017-08-08T03:25:55.989Z,4
2017-08-08T03:27:05.841Z,4
2017-08-08T03:28:14.757Z,0
2017-08-08T03:29:23.959Z,4
2017-08-08T03:30:33.695Z,4
2017-08-08T03:31:43.234Z,4
2017-08-08T03:32:53.091Z,4
2017-08-08T03:34:02.622Z,4
2017-08-08T03:35:11.834Z,8
2017-08-08T03:36:21.419Z,8
2017-08-08T03:37:31.268Z,12
2017-08-08T03:38:40.153Z,12
2017-08-08T03:39:49.356Z,12
2017-08-08T03:40:58.561Z,12
2017-08-08T03:42:08.792Z,16
2017-08-08T03:43:18.031Z,20
2017-08-08T03:44:27.563Z,20
2017-08-08T03:45:37.093Z,24
2017-08-08T03:46:46.305Z,24
2017-08-08T03:47:55.574Z,28
2017-08-08T03:49:05.110Z,32
2017-08-08T03:50:14.965Z,40
2017-08-08T03:51:24.180Z,44
2017-08-08T03:52:33.712Z,48
2017-08-08T03:53:43.078Z,52
2017-08-08T03:54:52.930Z,56
2017-08-08T03:56:02.136Z,60
2017-08-08T03:57:11.670Z,64
2017-08-08T03:58:21.523Z,68
2017-08-08T03:59:31.126Z,72
2017-08-08T04:00:40.657Z,76
2017-08-08T04:01:49.866Z,84
2017-08-08T04:02:59.403Z,92
2017-08-08T04:04:08.615Z,108
2017-08-08T04:05:18.763Z,132
2017-08-08T04:06:27.650Z,172
2017-08-08T04:07:36.857Z,224
2017-08-08T04:08:46.383Z,252
2017-08-08T04:09:55.269Z,260
2017-08-08T04:11:05.279Z,260
2017-08-08T04:12:15.132Z,264
2017-08-08T04:13:24.665Z,268
2017-08-08T04:14:33.871Z,256
2017-08-08T04:15:43.398Z,236
2017-08-08T04:16:53.076Z,232
2017-08-08T04:18:01.971Z,232
2017-08-08T04:19:11.184Z,232
2017-08-08T04:20:21.046Z,236
2017-08-08T04:21:30.571Z,248
2017-08-08T04:22:39.515Z,256
2017-08-08T04:23:49.064Z,276
2017-08-08T04:24:58.594Z,296
2017-08-08T04:26:07.795Z,320
2017-08-08T04:27:16.679Z,344
2017-08-08T04:28:26.041Z,364
2017-08-08T04:29:35.577Z,380
2017-08-08T04:30:45.435Z,392
2017-08-08T04:31:54.967Z,404
2017-08-08T04:33:04.168Z,408
2017-08-08T04:34:13.722Z,412
2017-08-08T04:35:22.934Z,408
2017-08-08T04:36:32.472Z,416
2017-08-08T04:37:42.003Z,432
2017-08-08T04:38:51.204Z,444
2017-08-08T04:40:00.908Z,444
2017-08-08T04:41:10.113Z,440
2017-08-08T04:42:19.650Z,440
2017-08-08T04:43:29.187Z,440
2017-08-08T04:44:38.397Z,444
2017-08-08T04:45:47.610Z,468
2017-08-08T04:46:56.816Z,504
2017-08-08T04:48:06.348Z,552
2017-08-08T04:49:15.880Z,604
2017-08-08T04:50:25.409Z,648
2017-08-08T04:51:35.091Z,684
2017-08-08T04:52:44.629Z,696
2017-08-08T04:53:54.484Z,684
2017-08-08T04:55:04.343Z,676
2017-08-08T04:56:14.202Z,636
2017-08-08T04:57:23.559Z,584
2017-08-08T04:58:32.764Z,556
2017-08-08T04:59:41.647Z,540
2017-08-08T05:00:51.505Z,540
2017-08-08T05:02:01.365Z,544
2017-08-08T05:03:10.303Z,564
2017-08-08T05:04:20.164Z,596
2017-08-08T05:05:29.748Z,620
2017-08-08T05:06:39.285Z,636
2017-08-08T05:07:48.482Z,656
2017-08-08T05:08:57.687Z,668
2017-08-08T05:10:06.895Z,696
2017-08-08T05:11:16.157Z,736
2017-08-08T05:12:25.756Z,764
2017-08-08T05:13:35.286Z,800
2017-08-08T05:14:45.206Z,864
2017-08-08T05:15:54.752Z,916
2017-08-08T05:17:03.965Z,976
2017-08-08T05:18:13.824Z,956
2017-08-08T05:19:23.690Z,936
2017-08-08T05:20:33.226Z,932
2017-08-08T05:21:42.436Z,904
2017-08-08T05:22:51.651Z,920
2017-08-08T05:24:00.531Z,948
2017-08-08T05:25:10.393Z,972
2017-08-08T05:26:19.276Z,980
2017-08-08T05:27:28.482Z,968
2017-08-08T05:28:37.516Z,960
2017-08-08T05:29:47.049Z,996
2017-08-08T05:30:56.906Z,1048
2017-08-08T05:32:06.437Z,1076
2017-08-08T05:33:15.643Z,1108
2017-08-08T05:34:25.102Z,1152
2017-08-08T05:35:34.311Z,1204
2017-08-08T05:36:43.204Z,1156
2017-08-08T05:37:52.734Z,1132
2017-08-08T05:39:01.615Z,1148
2017-08-08T05:40:11.246Z,1176
2017-08-08T05:41:20.778Z,1172
2017-08-08T05:42:30.308Z,1184
2017-08-08T05:43:39.526Z,1180
2017-08-08T05:44:49.377Z,1224
2017-08-08T05:45:59.011Z,1220
2017-08-08T05:47:08.544Z,1224
2017-08-08T05:48:18.074Z,1184
2017-08-08T05:49:27.924Z,1060
2017-08-08T05:50:37.131Z,1036
2017-08-08T05:51:47.130Z,1100
2017-08-08T05:52:56.983Z,1200
2017-08-08T05:54:06.836Z,1300
2017-08-08T05:55:16.367Z,1388
2017-08-08T05:56:25.899Z,1444
2017-08-08T05:57:35.578Z,1460
2017-08-08T05:58:44.472Z,1476
2017-08-08T05:59:54.328Z,1456
2017-08-08T06:01:04.510Z,1344
2017-08-08T06:02:14.374Z,1304
2017-08-08T06:03:24.052Z,1388
2017-08-08T06:04:33.585Z,1488
2017-08-08T06:05:43.116Z,1500
2017-08-08T06:06:52.327Z,1544
2017-08-08T06:08:01.548Z,1540
2017-08-08T06:09:11.502Z,1556
2017-08-08T06:10:21.358Z,1572
2017-08-08T06:11:31.212Z,1580
2017-08-08T06:12:40.419Z,1616
2017-08-08T06:13:50.268Z,1592
2017-08-08T06:14:59.628Z,1532
2017-08-08T06:16:09.481Z,1536
2017-08-08T06:17:19.336Z,1556
2017-08-08T06:18:28.568Z,1520
2017-08-08T06:19:37.772Z,1436
2017-08-08T06:20:47.027Z,1352
2017-08-08T06:21:56.595Z,1316
2017-08-08T06:23:05.477Z,1340
2017-08-08T06:24:14.682Z,1384
2017-08-08T06:25:24.540Z,1460
2017-08-08T06:26:33.850Z,1512
2017-08-08T06:27:43.386Z,1488
2017-08-08T06:28:52.926Z,1432
2017-08-08T06:30:01.815Z,1356
2017-08-08T06:31:11.695Z,1316
2017-08-08T06:32:20.634Z,1236
2017-08-08T06:33:30.165Z,1164
2017-08-08T06:34:39.377Z,1080
2017-08-08T06:35:49.225Z,992
2017-08-08T06:36:58.755Z,928
2017-08-08T06:38:08.338Z,896
2017-08-08T06:39:17.866Z,892
2017-08-08T06:40:27.400Z,876
2017-08-08T06:41:36.935Z,872
2017-08-08T06:42:46.464Z,884
2017-08-08T06:43:56.047Z,904
2017-08-08T06:45:04.931Z,948
2017-08-08T06:46:14.503Z,1032
2017-08-08T06:47:23.389Z,1120
2017-08-08T06:48:32.651Z,1184
2017-08-08T06:49:41.683Z,1272
2017-08-08T06:50:50.572Z,1404
2017-08-08T06:52:00.105Z,1588
2017-08-08T06:53:09.311Z,1732
2017-08-08T06:54:18.517Z,2000
2017-08-08T06:55:27.603Z,2236
2017-08-08T06:56:36.814Z,2400
2017-08-08T06:57:46.989Z,2524
2017-08-08T06:58:56.195Z,2712
2017-08-08T07:00:05.076Z,2808
2017-08-08T07:01:14.759Z,2928
2017-08-08T07:02:24.615Z,3004
2017-08-08T07:03:33.513Z,2928
2017-08-08T07:04:43.374Z,2680
2017-08-08T07:05:53.231Z,2660
2017-08-08T07:07:02.588Z,2828
2017-08-08T07:08:12.439Z,3152
2017-08-08T07:09:21.648Z,3396
2017-08-08T07:10:31.224Z,3344
2017-08-08T07:11:40.436Z,3120
2017-08-08T07:12:49.471Z,2992
2017-08-08T07:13:59.010Z,2956
2017-08-08T07:15:08.235Z,3048
2017-08-08T07:16:17.769Z,3256
2017-08-08T07:17:26.656Z,3488
2017-08-08T07:18:36.440Z,3744
2017-08-08T07:19:45.654Z,3792
2017-08-08T07:20:55.516Z,3744
2017-08-08T07:22:05.047Z,3704
2017-08-08T07:23:14.588Z,3740
2017-08-08T07:24:24.320Z,3704
2017-08-08T07:25:34.495Z,3576
2017-08-08T07:26:43.704Z,3384
2017-08-08T07:27:53.559Z,3288
2017-08-08T07:29:02.768Z,3308
2017-08-08T07:30:12.827Z,3448
2017-08-08T07:31:22.037Z,3504
2017-08-08T07:32:31.570Z,3524
2017-08-08T07:33:41.103Z,3536
2017-08-08T07:34:49.989Z,3536
2017-08-08T07:35:59.724Z,3528
2017-08-08T07:37:09.254Z,3508
2017-08-08T07:38:18.787Z,3540
2017-08-08T07:39:28.010Z,3484
2017-08-08T07:40:37.567Z,3360
2017-08-08T07:41:47.500Z,3112
2017-08-08T07:42:57.045Z,3020
2017-08-08T07:44:06.254Z,3112
2017-08-08T07:45:15.796Z,3268
2017-08-08T07:46:24.679Z,3396
2017-08-08T07:47:34.034Z,3448
2017-08-08T07:48:43.250Z,3516
2017-08-08T07:49:52.458Z,3628
2017-08-08T07:51:01.988Z,3664
2017-08-08T07:52:10.885Z,3624
2017-08-08T07:53:20.252Z,3548
2017-08-08T07:54:29.782Z,3516
2017-08-08T07:55:38.991Z,3516
2017-08-08T07:56:48.525Z,3548
2017-08-08T07:57:58.058Z,3688
2017-08-08T07:59:07.268Z,3848
2017-08-08T08:00:16.477Z,4008
2017-08-08T08:01:25.683Z,4112
2017-08-08T08:02:35.215Z,4176
2017-08-08T08:03:45.084Z,4228
2017-08-08T08:04:54.449Z,4264
2017-08-08T08:06:03.337Z,4224
2017-08-08T08:07:12.546Z,4152
2017-08-08T08:08:22.737Z,4112
2017-08-08T08:09:31.626Z,4084
2017-08-08T08:10:40.610Z,4052
2017-08-08T08:11:50.148Z,4076
2017-08-08T08:13:00.010Z,4300
2017-08-08T08:14:08.899Z,4600
2017-08-08T08:15:18.432Z,4704
2017-08-08T08:16:27.416Z,4592
2017-08-08T08:17:37.275Z,4624
2017-08-08T08:18:46.807Z,4652
2017-08-08T08:19:56.016Z,4576
2017-08-08T08:21:05.919Z,4660
2017-08-08T08:22:15.603Z,4852
2017-08-08T08:23:25.457Z,4924
2017-08-08T08:24:34.347Z,4908
2017-08-08T08:25:43.885Z,5060
2017-08-08T08:26:53.097Z,5120
2017-08-08T08:28:02.509Z,4932
2017-08-08T08:29:11.739Z,4792
2017-08-08T08:30:21.282Z,4884
2017-08-08T08:31:30.494Z,4912
2017-08-08T08:32:39.701Z,5084
2017-08-08T08:33:49.066Z,5192
2017-08-08T08:34:58.277Z,5188
2017-08-08T08:36:08.455Z,5160
2017-08-08T08:37:17.354Z,5088
2017-08-08T08:38:26.243Z,5012
2017-08-08T08:39:35.555Z,4940
2017-08-08T08:40:45.426Z,4908
2017-08-08T08:41:54.638Z,4904
2017-08-08T08:43:04.172Z,4936
2017-08-08T08:44:13.707Z,4992
2017-08-08T08:45:23.389Z,5048
2017-08-08T08:46:33.256Z,5008
2017-08-08T08:47:43.116Z,4928
2017-08-08T08:48:52.648Z,4868
2017-08-08T08:50:02.509Z,4816
2017-08-08T08:51:11.497Z,4812
2017-08-08T08:52:20.390Z,4932
2017-08-08T08:53:29.280Z,5208
2017-08-08T08:54:38.491Z,5520
2017-08-08T08:55:47.702Z,5652
2017-08-08T08:56:57.109Z,5744
2017-08-08T08:58:07.248Z,5824
2017-08-08T08:59:16.132Z,5852
2017-08-08T09:00:25.671Z,5964
2017-08-08T09:01:34.889Z,6064
2017-08-08T09:02:44.477Z,5864
2017-08-08T09:03:53.692Z,5756
2017-08-08T09:05:02.914Z,5708
2017-08-08T09:06:11.800Z,5708
2017-08-08T09:07:21.334Z,5932
2017-08-08T09:08:30.224Z,5992
2017-08-08T09:09:39.763Z,5956
2017-08-08T09:10:49.302Z,5780
2017-08-08T09:11:58.508Z,5760
2017-08-08T09:13:07.407Z,5704
2017-08-08T09:14:17.447Z,5692
2017-08-08T09:15:26.979Z,5692
2017-08-08T09:16:36.513Z,5660
2017-08-08T09:17:46.046Z,5848
2017-08-08T09:18:55.584Z,6144
2017-08-08T09:20:04.720Z,6244
2017-08-08T09:21:14.254Z,6276
2017-08-08T09:22:23.791Z,6380
2017-08-08T09:23:32.679Z,6428
2017-08-08T09:24:42.212Z,5984
2017-08-08T09:25:51.350Z,5632
2017-08-08T09:27:00.568Z,5728
2017-08-08T09:28:10.105Z,5872
2017-08-08T09:29:19.646Z,5808
2017-08-08T09:30:28.854Z,5724
2017-08-08T09:31:38.220Z,5760
2017-08-08T09:32:47.757Z,5864
2017-08-08T09:33:57.294Z,5924
2017-08-08T09:35:06.512Z,5984
2017-08-08T09:36:16.046Z,6040
2017-08-08T09:37:25.634Z,6072
2017-08-08T09:38:34.523Z,6096
2017-08-08T09:39:43.740Z,6096
2017-08-08T09:40:53.269Z,6068
2017-08-08T09:42:02.809Z,6080
2017-08-08T09:43:12.117Z,6144
2017-08-08T09:44:21.332Z,6188
2017-08-08T09:45:30.548Z,6192
2017-08-08T09:46:40.405Z,6176
2017-08-08T09:47:49.302Z,6184
2017-08-08T09:48:58.814Z,6192
2017-08-08T09:50:08.026Z,6200
2017-08-08T09:51:17.243Z,6212
2017-08-08T09:52:26.454Z,6168
2017-08-08T09:53:35.993Z,6088
2017-08-08T09:54:45.220Z,6004
2017-08-08T09:55:54.106Z,5896
2017-08-08T09:57:03.326Z,5788
2017-08-08T09:58:12.860Z,5732
2017-08-08T09:59:22.429Z,5696
2017-08-08T10:00:32.069Z,5656
2017-08-08T10:01:41.612Z,5672
2017-08-08T10:02:50.829Z,5692
2017-08-08T10:04:00.041Z,5700
2017-08-08T10:05:09.249Z,5668
2017-08-08T10:06:18.991Z,5604
2017-08-08T10:07:27.882Z,5504
2017-08-08T10:08:37.103Z,5320
2017-08-08T10:09:45.993Z,5092
2017-08-08T10:10:54.878Z,4892
2017-08-08T10:12:03.822Z,4768
2017-08-08T10:13:13.684Z,4724
2017-08-08T10:14:23.222Z,4788
2017-08-08T10:15:32.764Z,4908
2017-08-08T10:16:42.626Z,5000
2017-08-08T10:17:51.936Z,5096
2017-08-08T10:19:01.807Z,5216
2017-08-08T10:20:11.017Z,5356
2017-08-08T10:21:20.548Z,5456
2017-08-08T10:22:29.766Z,5528
2017-08-08T10:23:39.501Z,5584
2017-08-08T10:24:49.037Z,5544
2017-08-08T10:25:58.572Z,5392
2017-08-08T10:27:08.115Z,5236
2017-08-08T10:28:17.657Z,5188
2017-08-08T10:29:26.973Z,5304
2017-08-08T10:30:35.860Z,5452
2017-08-08T10:31:45.720Z,5524
2017-08-08T10:32:55.587Z,5516
2017-08-08T10:34:04.798Z,5488
2017-08-08T10:35:14.442Z,5508
2017-08-08T10:36:23.662Z,5604
2017-08-08T10:37:32.884Z,5752
2017-08-08T10:38:42.099Z,5832
2017-08-08T10:39:51.309Z,5808
2017-08-08T10:41:00.769Z,5804
2017-08-08T10:42:10.307Z,5848
2017-08-08T10:43:19.518Z,5888
2017-08-08T10:44:29.072Z,5928
2017-08-08T10:45:37.965Z,5972
2017-08-08T10:46:47.275Z,6004
2017-08-08T10:47:56.489Z,6020
2017-08-08T10:49:06.028Z,6008
2017-08-08T10:50:15.882Z,5916
2017-08-08T10:51:25.741Z,5744
2017-08-08T10:52:35.009Z,5536
2017-08-08T10:53:44.886Z,5368
2017-08-08T10:54:54.127Z,5260
2017-08-08T10:56:03.666Z,5212
2017-08-08T10:57:13.213Z,5156
2017-08-08T10:58:23.324Z,5152
2017-08-08T10:59:32.869Z,5164
2017-08-08T11:00:42.079Z,5264
2017-08-08T11:01:51.289Z,5380
2017-08-08T11:03:00.835Z,5436
2017-08-08T11:04:09.923Z,5268
2017-08-08T11:05:19.456Z,5012
2017-08-08T11:06:29.973Z,4992
2017-08-08T11:07:40.154Z,5060
2017-08-08T11:08:49.055Z,5092
2017-08-08T11:09:58.603Z,4992
2017-08-08T11:11:08.135Z,4744
2017-08-08T11:12:17.350Z,4436
2017-08-08T11:13:26.894Z,4164
2017-08-08T11:14:36.107Z,4000
2017-08-08T11:15:45.790Z,3960
2017-08-08T11:16:55.334Z,3988
2017-08-08T11:18:04.543Z,4040
2017-08-08T11:19:13.435Z,4044
2017-08-08T11:20:22.661Z,4084
2017-08-08T11:21:32.078Z,4260
2017-08-08T11:22:41.292Z,4556
2017-08-08T11:23:50.830Z,4808
2017-08-08T11:24:59.723Z,4768
2017-08-08T11:26:09.261Z,4728
2017-08-08T11:27:19.481Z,4800
2017-08-08T11:28:28.693Z,4916
2017-08-08T11:29:37.598Z,4952
2017-08-08T11:30:46.488Z,5012
2017-08-08T11:31:56.025Z,5136
2017-08-08T11:33:05.712Z,5180
2017-08-08T11:34:14.929Z,5196
2017-08-08T11:35:24.142Z,5168
2017-08-08T11:36:33.731Z,4916
2017-08-08T11:37:42.951Z,4844
2017-08-08T11:38:52.642Z,4816
2017-08-08T11:40:02.176Z,4736
2017-08-08T11:41:11.094Z,4612
2017-08-08T11:42:20.304Z,4708
2017-08-08T11:43:29.569Z,4884
2017-08-08T11:44:38.860Z,5144
2017-08-08T11:45:48.071Z,5480
2017-08-08T11:46:57.281Z,5464
2017-08-08T11:48:06.174Z,5336
2017-08-08T11:49:15.385Z,5376
2017-08-08T11:50:24.602Z,5508
2017-08-08T11:51:34.137Z,5548
2017-08-08T11:52:43.669Z,5480
2017-08-08T11:53:53.216Z,5240
2017-08-08T11:55:03.421Z,4884
2017-08-08T11:56:13.582Z,4676
2017-08-08T11:57:23.141Z,4640
2017-08-08T11:58:32.732Z,4620
2017-08-08T11:59:42.592Z,4608
2017-08-08T12:00:52.128Z,4588
2017-08-08T12:02:02.017Z,4536
2017-08-08T12:03:11.879Z,4484
2017-08-08T12:04:21.134Z,4404
2017-08-08T12:05:30.344Z,4376
2017-08-08T12:06:39.567Z,4524
2017-08-08T12:07:49.141Z,4728
2017-08-08T12:08:58.690Z,4832
2017-08-08T12:10:08.225Z,4800
2017-08-08T12:11:17.774Z,4680
2017-08-08T12:12:27.305Z,4580
2017-08-08T12:13:36.817Z,4536
2017-08-08T12:14:46.697Z,4500
2017-08-08T12:15:55.910Z,4416
2017-08-08T12:17:05.445Z,4328
2017-08-08T12:18:14.980Z,4268
2017-08-08T12:19:24.766Z,4248
2017-08-08T12:20:33.664Z,4332
2017-08-08T12:21:42.582Z,4420
2017-08-08T12:22:52.441Z,4524
2017-08-08T12:24:01.341Z,4540
2017-08-08T12:25:10.707Z,4576
2017-08-08T12:26:19.595Z,4664
2017-08-08T12:27:29.132Z,4664
2017-08-08T12:28:38.667Z,4540
2017-08-08T12:29:47.897Z,4380
2017-08-08T12:30:57.955Z,4268
2017-08-08T12:32:07.169Z,4240
2017-08-08T12:33:16.714Z,4244
2017-08-08T12:34:25.998Z,4304
2017-08-08T12:35:36.059Z,4364
2017-08-08T12:36:45.385Z,4344
2017-08-08T12:37:54.934Z,4316
2017-08-08T12:39:04.148Z,4308
2017-08-08T12:40:13.687Z,4248
2017-08-08T12:41:23.257Z,4132
2017-08-08T12:42:32.664Z,4024
2017-08-08T12:43:41.589Z,4040
2017-08-08T12:44:50.549Z,4128
2017-08-08T12:45:59.438Z,4280
2017-08-08T12:47:08.332Z,4436
2017-08-08T12:48:17.830Z,4592
2017-08-08T12:49:27.411Z,4732
2017-08-08T12:50:37.408Z,4920
2017-08-08T12:51:46.307Z,4976
2017-08-08T12:52:56.193Z,4808
2017-08-08T12:54:05.901Z,4608
2017-08-08T12:55:15.761Z,4476
2017-08-08T12:56:24.976Z,4608
2017-08-08T12:57:34.186Z,4808
2017-08-08T12:58:43.403Z,5020
2017-08-08T12:59:52.471Z,5220
2017-08-08T13:01:01.931Z,5252
2017-08-08T13:02:11.144Z,5164
2017-08-08T13:03:20.367Z,4984
2017-08-08T13:04:30.324Z,4796
2017-08-08T13:05:39.691Z,4396
2017-08-08T13:06:49.549Z,4032
2017-08-08T13:07:58.701Z,3800
2017-08-08T13:09:08.541Z,3600
2017-08-08T13:10:18.111Z,3532
2017-08-08T13:11:27.851Z,3548
2017-08-08T13:12:37.065Z,3640
2017-08-08T13:13:46.630Z,3832
2017-08-08T13:14:56.172Z,3752
2017-08-08T13:16:05.405Z,3772
2017-08-08T13:17:14.969Z,3548
2017-08-08T13:18:24.514Z,3324
2017-08-08T13:19:33.733Z,3236
2017-08-08T13:20:43.591Z,3108
2017-08-08T13:21:53.128Z,3060
2017-08-08T13:23:02.339Z,2948
2017-08-08T13:24:12.201Z,2952
2017-08-08T13:25:21.739Z,2872
2017-08-08T13:26:31.293Z,2476
2017-08-08T13:27:40.504Z,2236
2017-08-08T13:28:50.421Z,2240
2017-08-08T13:30:00.295Z,2308
2017-08-08T13:31:09.509Z,2444
2017-08-08T13:32:19.698Z,2468
2017-08-08T13:33:28.924Z,2216
2017-08-08T13:34:37.879Z,1976
2017-08-08T13:35:48.080Z,1892
2017-08-08T13:36:58.288Z,1904
2017-08-08T13:38:07.827Z,1828
2017-08-08T13:39:17.702Z,1812
2017-08-08T13:40:27.046Z,1868
2017-08-08T13:41:36.263Z,2004
2017-08-08T13:42:45.804Z,2248
2017-08-08T13:43:55.021Z,2376
2017-08-08T13:45:04.879Z,2252
2017-08-08T13:46:14.505Z,2144
2017-08-08T13:47:24.368Z,1988
2017-08-08T13:48:33.903Z,1880
2017-08-08T13:49:43.776Z,1884
2017-08-08T13:50:53.314Z,1800
2017-08-08T13:52:02.912Z,1748
2017-08-08T13:53:12.457Z,1748
2017-08-08T13:54:21.992Z,1816
2017-08-08T13:55:31.532Z,1860
2017-08-08T13:56:40.751Z,1912
2017-08-08T13:57:50.800Z,2096
2017-08-08T13:59:00.358Z,2116
2017-08-08T14:00:10.544Z,2068
2017-08-08T14:01:20.419Z,2156
2017-08-08T14:02:30.614Z,2268
2017-08-08T14:03:39.976Z,2348
2017-08-08T14:04:49.196Z,2540
2017-08-08T14:05:59.058Z,2704
2017-08-08T14:07:08.930Z,2680
2017-08-08T14:08:18.147Z,2648
2017-08-08T14:09:28.333Z,2532
2017-08-08T14:10:38.196Z,2372
2017-08-08T14:11:48.059Z,2488
2017-08-08T14:12:57.631Z,2944
2017-08-08T14:14:07.179Z,3412
2017-08-08T14:15:17.098Z,3860
2017-08-08T14:16:26.967Z,3752
2017-08-08T14:17:36.836Z,3336
2017-08-08T14:18:46.709Z,2948
2017-08-08T14:19:56.289Z,2908
2017-08-08T14:21:06.150Z,2980
2017-08-08T14:22:15.360Z,3188
2017-08-08T14:23:24.896Z,3340
2017-08-08T14:24:34.435Z,3080
2017-08-08T14:25:43.647Z,2720
2017-08-08T14:26:53.110Z,2736
2017-08-08T14:28:02.320Z,2996
2017-08-08T14:29:11.855Z,2784
2017-08-08T14:30:21.067Z,2512
2017-08-08T14:31:30.931Z,2112
2017-08-08T14:32:40.293Z,1848
2017-08-08T14:33:49.507Z,1716
2017-08-08T14:34:59.363Z,1612
2017-08-08T14:36:08.577Z,1660
2017-08-08T14:37:17.470Z,1876
2017-08-08T14:38:27.665Z,2132
2017-08-08T14:39:37.225Z,2312
2017-08-08T14:40:46.760Z,2372
2017-08-08T14:41:56.297Z,2128
2017-08-08T14:43:06.159Z,1872
2017-08-08T14:44:15.696Z,1952
2017-08-08T14:45:25.250Z,2032
2017-08-08T14:46:34.139Z,1724
2017-08-08T14:47:43.065Z,1500
2017-08-08T14:48:52.274Z,1392
2017-08-08T14:50:01.487Z,1176
2017-08-08T14:51:10.711Z,1104
2017-08-08T14:52:20.266Z,1184
2017-08-08T14:53:29.806Z,1248
2017-08-08T14:54:39.345Z,1192
2017-08-08T14:55:48.902Z,992
2017-08-08T14:56:58.462Z,808
2017-08-08T14:58:07.674Z,772
2017-08-08T14:59:17.555Z,732
2017-08-08T15:00:27.090Z,676
2017-08-08T15:01:36.300Z,644
2017-08-08T15:02:46.160Z,736
2017-08-08T15:03:56.005Z,796
2017-08-08T15:05:05.020Z,832
2017-08-08T15:06:14.261Z,1276
2017-08-08T15:07:24.121Z,1452
2017-08-08T15:08:33.661Z,1212
2017-08-08T15:09:43.191Z,1072
2017-08-08T15:10:52.084Z,1008
2017-08-08T15:12:01.622Z,1004
2017-08-08T15:13:10.847Z,980
2017-08-08T15:14:20.062Z,1028
2017-08-08T15:15:29.646Z,1052
2017-08-08T15:16:39.181Z,980
2017-08-08T15:17:48.394Z,764
2017-08-08T15:18:57.601Z,796
2017-08-08T15:20:07.721Z,720
2017-08-08T15:21:17.131Z,592
2017-08-08T15:22:26.021Z,620
2017-08-08T15:23:34.934Z,520
2017-08-08T15:24:44.529Z,456
2017-08-08T15:25:54.385Z,416
2017-08-08T15:27:04.296Z,448
2017-08-08T15:28:13.829Z,436
2017-08-08T15:29:23.687Z,420
2017-08-08T15:30:33.233Z,468
2017-08-08T15:31:42.785Z,504
2017-08-08T15:32:52.091Z,464
2017-08-08T15:34:01.630Z,440
2017-08-08T15:35:11.486Z,380
2017-08-08T15:36:20.376Z,336
2017-08-08T15:37:30.229Z,272
2017-08-08T15:38:40.199Z,244
2017-08-08T15:39:49.416Z,244
2017-08-08T15:40:58.304Z,260
2017-08-08T15:42:07.531Z,284
2017-08-08T15:43:17.074Z,360
2017-08-08T15:44:27.358Z,432
2017-08-08T15:45:37.553Z,464
2017-08-08T15:46:46.442Z,540
2017-08-08T15:47:56.295Z,548
2017-08-08T15:49:05.510Z,520
2017-08-08T15:50:14.772Z,468
2017-08-08T15:51:24.318Z,508
2017-08-08T15:52:34.514Z,540